METAR Data
IDs: Format: Raw Decoded Include TAF

Data at: 1250 UTC 23 Sep 2018

KBEH 231153Z AUTO 00000KT CLR 06/05 A3020 RMK AO2 SLP229 T00610050 10083 20061 53001 $
KBEH 231053Z AUTO 00000KT CLR 06/05 A3019 RMK AO2 SLP225 T00610050 $
KBEH 231037Z AUTO 00000KT 1 1/4SM BR CLR 06/05 A3019 RMK AO2 T00610050 $
KBEH 230956Z AUTO 07003KT 4SM BR CLR 07/06 A3019 RMK AO2 T00670056 $
KBEH 230953Z AUTO 00000KT 1 3/4SM BR CLR 07/06 A3019 RMK AO2 SLP225 T00670056 $
KBEH 230948Z AUTO 07003KT 1 3/4SM BR CLR 07/06 A3019 RMK AO2 $
KBEH 230923Z AUTO 00000KT 4SM BR CLR 07/06 A3019 RMK AO2 T00670056 $
KBEH 230913Z AUTO 08003KT 1 3/4SM BR CLR 06/05 A3019 RMK AO2 T00610050 $
KBEH 230853Z AUTO 00000KT 7SM CLR 07/06 A3020 RMK AO2 SLP226 T00720056 55000 $
KBEH 230753Z AUTO 00000KT 10SM CLR 08/06 A3020 RMK AO2 SLP226 T00780061 $
KBEH 230653Z AUTO 00000KT 8SM CLR 08/07 A3020 RMK AO2 SLP225 T00780067 $
KBEH 230639Z AUTO 00000KT 9SM CLR 08/07 A3019 RMK AO2 T00830067 $
KBEH 230632Z AUTO 00000KT 2SM BR CLR 08/07 A3019 RMK AO2 T00830072 $
KBEH 230621Z AUTO 00000KT 3/4SM BR CLR 08/07 A3019 RMK AO2 T00830072 $
KBEH 230614Z AUTO 00000KT 1SM BR CLR 08/07 A3020 RMK AO2 T00830067 $
KBEH 230603Z AUTO 00000KT 1 3/4SM BR CLR 08/07 A3020 RMK AO2 T00830067 $
KBEH 230553Z AUTO 00000KT 8SM CLR 08/07 A3020 RMK AO2 SLP226 T00830067 10133 20083 57006 $
KBEH 230453Z AUTO 10003KT 10SM CLR 09/08 A3020 RMK AO2 SLP228 T00940078 402000083 $
KBEH 230353Z AUTO 12003KT 10SM CLR 08/07 A3021 RMK AO2 SLP232 T00830072 $
KBEH 230253Z AUTO 08003KT 9SM CLR 09/08 A3022 RMK AO2 SLP234 T00940078 50002 $
KBEH 230153Z AUTO 00000KT 8SM CLR 10/08 A3022 RMK AO2 SLP236 T01000083 $
KBEH 230053Z AUTO 00000KT 10SM CLR 12/09 A3021 RMK AO2 SLP233 T01170089 $
KBEH 222353Z AUTO 00000KT 10SM CLR 14/09 A3021 RMK AO2 SLP232 T01390089 10200 20139 56006 $
KBEH 222253Z AUTO VRB03KT 10SM CLR 17/08 A3022 RMK AO2 SLP233 T01670083 $
KBEH 222153Z AUTO VRB05KT 10SM CLR 17/08 A3022 RMK AO2 SLP235 T01720083 $
KBEH 222053Z AUTO 00000KT 10SM CLR 19/07 A3023 RMK AO2 SLP237 T01890067 56022 $
KBEH 221953Z AUTO 00000KT 10SM CLR 19/06 A3025 RMK AO2 SLP242 T01890061 $
KBEH 221853Z AUTO VRB05KT 10SM CLR 18/06 A3028 RMK AO2 SLP251 T01830061 $
KBEH 221753Z AUTO 10008G14KT 10SM CLR 18/06 A3030 RMK AO2 SLP259 T01780056 10178 20094 58014 $
KBEH 221653Z AUTO 11009G15KT 080V140 10SM CLR 17/06 A3032 RMK AO2 SLP267 T01670061 $
KBEH 221553Z AUTO 09008KT 10SM CLR 15/06 A3033 RMK AO2 SLP271 T01500056 $
KBEH 221453Z AUTO 06009KT 10SM CLR 13/05 A3034 RMK AO2 SLP274 T01330050 51003 $
KBEH 221353Z AUTO 07010KT 10SM CLR 12/04 A3034 RMK AO2 SLP273 T01170044 $
KBEH 221253Z AUTO 05006KT 10SM CLR 10/05 A3034 RMK AO2 SLP274 T01000050 $
KBEH 221153Z AUTO 04004KT 10SM CLR 10/05 A3033 RMK AO2 SLP271 7//// T01000050 10144 20094 53014 $
KBEH 221053Z AUTO 04007KT 10SM CLR 11/04 A3031 RMK AO2 SLP265 T01060044 $
KBEH 220953Z AUTO 04006KT 10SM CLR 11/04 A3030 RMK AO2 SLP260 T01110044 $
KBEH 220853Z AUTO VRB04KT 10SM CLR 12/04 A3029 RMK AO2 SLP256 T01170044 51011 $
KBEH 220753Z AUTO 05006KT 10SM CLR 12/05 A3029 RMK AO2 SLP255 T01220050 $
KBEH 220653Z AUTO 06007KT 10SM SCT041 13/06 A3027 RMK AO2 SLP249 T01330061 $
KBEH 220553Z AUTO 03006KT 10SM OVC040 14/06 A3026 RMK AO2 SLP244 T01440061 10183 20144 53018 $
KBEH 220453Z AUTO 02010G18KT 360V080 10SM SCT038 OVC046 15/08 A3023 RMK AO2 SLP236 T01500078 402720150 $
KBEH 220353Z AUTO 01007G20KT 320V080 10SM BKN042 OVC050 16/08 A3022 RMK AO2 SLP231 T01610078 $
KBEH 220253Z AUTO 10SM FEW038 OVC050 17/09 A3020 RMK AO2 SLP225 T01670094 51037 $
KBEH 220153Z AUTO 31008G15KT 10SM SCT038 OVC048 18/09 A3017 RMK AO2 SLP214 T01780094 $
KBEH 220053Z AUTO 31007G21KT 10SM SCT040 OVC050 18/11 A3013 RMK AO2 SLP201 T01780106 $